createdAt,value
2023-05-09T00:00:13.770Z,6.96
2023-05-09T00:02:45.887Z,6.95
2023-05-09T00:05:15.173Z,6.93
2023-05-09T00:07:43.484Z,6.90
2023-05-09T00:10:11.799Z,6.89
2023-05-09T00:12:40.040Z,6.88
2023-05-09T00:15:10.188Z,6.87
2023-05-09T00:17:38.713Z,6.86
2023-05-09T00:20:12.426Z,6.85
2023-05-09T00:22:41.617Z,6.86
2023-05-09T00:25:11.441Z,6.84
2023-05-09T00:27:39.622Z,6.84
2023-05-09T00:30:10.066Z,6.85
2023-05-09T00:32:40.328Z,6.87
2023-05-09T00:35:10.011Z,6.87
2023-05-09T00:37:38.939Z,6.89
2023-05-09T00:40:09.318Z,6.88
2023-05-09T00:42:37.957Z,6.87
2023-05-09T00:45:07.055Z,6.91
2023-05-09T00:47:36.622Z,6.90
2023-05-09T00:50:05.409Z,6.92
2023-05-09T00:52:34.547Z,6.89
2023-05-09T00:55:04.446Z,6.87
2023-05-09T00:57:33.382Z,6.87
2023-05-09T01:00:01.575Z,6.85
2023-05-09T01:02:30.106Z,6.83
2023-05-09T01:04:59.635Z,6.81
2023-05-09T01:07:35.982Z,6.80
2023-05-09T01:10:12.964Z,6.78
2023-05-09T01:12:48.814Z,6.75
2023-05-09T01:15:23.301Z,6.72
2023-05-09T01:17:55.416Z,6.70
2023-05-09T01:20:33.804Z,6.69
2023-05-09T01:23:21.854Z,6.66
2023-05-09T01:26:03.156Z,6.66
2023-05-09T01:29:02.629Z,6.65
2023-05-09T01:31:36.086Z,6.66
2023-05-09T01:34:06.728Z,6.65
2023-05-09T01:36:37.373Z,6.66
2023-05-09T01:39:07.014Z,6.65
2023-05-09T01:41:38.665Z,6.65
2023-05-09T01:44:11.005Z,6.63
2023-05-09T01:46:41.481Z,6.64
2023-05-09T01:49:10.194Z,6.66
2023-05-09T01:51:42.279Z,6.65
2023-05-09T01:54:13.633Z,6.65
2023-05-09T01:56:43.847Z,6.68
2023-05-09T01:59:16.170Z,6.70
2023-05-09T02:01:46.462Z,6.72
2023-05-09T02:04:17.128Z,6.75
2023-05-09T02:06:50.678Z,6.77
2023-05-09T02:09:19.545Z,6.78
2023-05-09T02:11:47.828Z,6.85
2023-05-09T02:14:15.929Z,6.86
2023-05-09T02:16:45.474Z,6.92
2023-05-09T02:19:13.489Z,7.01
2023-05-09T02:21:42.550Z,7.14
2023-05-09T02:24:12.158Z,7.29
2023-05-09T02:26:41.470Z,7.43
2023-05-09T02:29:11.546Z,7.60
2023-05-09T02:31:43.605Z,7.77
2023-05-09T02:34:14.335Z,7.97
2023-05-09T02:36:42.626Z,8.15
2023-05-09T02:39:11.445Z,8.37
2023-05-09T02:41:40.082Z,8.59
2023-05-09T02:44:08.519Z,8.84
2023-05-09T02:46:36.549Z,9.10
2023-05-09T02:49:04.820Z,9.37
2023-05-09T02:51:34.216Z,9.61
2023-05-09T02:54:02.253Z,9.89
2023-05-09T02:56:30.261Z,10.15
2023-05-09T02:58:58.308Z,10.28
2023-05-09T03:01:26.419Z,10.41
2023-05-09T03:03:54.496Z,10.65
2023-05-09T03:06:23.021Z,10.91
2023-05-09T03:08:52.517Z,11.14
2023-05-09T03:11:22.002Z,11.41
2023-05-09T03:13:50.138Z,11.82
2023-05-09T03:16:19.738Z,12.38
2023-05-09T03:18:47.983Z,13.18
2023-05-09T03:21:16.112Z,14.08
2023-05-09T03:23:44.658Z,15.11
2023-05-09T03:26:13.974Z,16.16
2023-05-09T03:28:43.258Z,17.14
2023-05-09T03:31:11.352Z,17.94
2023-05-09T03:33:39.902Z,18.86
2023-05-09T03:36:09.710Z,19.75
2023-05-09T03:38:40.871Z,20.85
2023-05-09T03:41:09.080Z,21.80
2023-05-09T03:43:38.539Z,22.61
2023-05-09T03:46:06.647Z,23.26
2023-05-09T03:48:35.382Z,24.06
2023-05-09T03:51:03.759Z,24.57
2023-05-09T03:53:34.740Z,25.00
2023-05-09T03:56:02.895Z,25.39
2023-05-09T03:58:34.778Z,25.71
2023-05-09T04:01:04.349Z,26.16
2023-05-09T04:03:33.579Z,26.70
2023-05-09T04:06:01.960Z,26.94
2023-05-09T04:08:36.027Z,27.49
2023-05-09T04:11:06.175Z,27.85
2023-05-09T04:13:35.264Z,27.80
2023-05-09T04:16:09.686Z,27.89
2023-05-09T04:18:40.038Z,28.09
2023-05-09T04:21:08.284Z,28.35
2023-05-09T04:23:36.513Z,28.42
2023-05-09T04:26:04.682Z,28.42
2023-05-09T04:28:32.982Z,28.31
2023-05-09T04:31:01.945Z,28.37
2023-05-09T04:33:33.316Z,28.55
2023-05-09T04:36:03.657Z,28.69
2023-05-09T04:38:31.811Z,28.80
2023-05-09T04:41:01.219Z,29.24
2023-05-09T04:43:29.934Z,29.37
2023-05-09T04:45:58.024Z,29.81
2023-05-09T04:48:26.355Z,30.23
2023-05-09T04:50:55.712Z,30.55
2023-05-09T04:53:23.722Z,30.64
2023-05-09T04:55:53.245Z,31.00
2023-05-09T04:58:22.554Z,31.56
2023-05-09T05:00:51.396Z,31.99
2023-05-09T05:03:19.865Z,31.99
2023-05-09T05:05:48.090Z,31.92
2023-05-09T05:08:20.647Z,31.90
2023-05-09T05:10:50.139Z,32.28
2023-05-09T05:13:19.390Z,32.70
2023-05-09T05:15:51.023Z,32.63
2023-05-09T05:18:21.661Z,33.01
2023-05-09T05:20:49.804Z,33.30
2023-05-09T05:23:19.439Z,33.42
2023-05-09T05:25:48.140Z,33.78
2023-05-09T05:28:16.346Z,33.87
2023-05-09T05:30:44.543Z,33.84
2023-05-09T05:33:13.824Z,34.11
2023-05-09T05:35:41.905Z,34.07
2023-05-09T05:38:10.042Z,34.16
2023-05-09T05:40:40.095Z,34.18
2023-05-09T05:43:09.093Z,34.31
2023-05-09T05:45:39.181Z,34.27
2023-05-09T05:48:10.006Z,34.51
2023-05-09T05:50:38.131Z,34.46
2023-05-09T05:53:06.561Z,34.97
2023-05-09T05:55:34.885Z,35.26
2023-05-09T05:58:04.959Z,35.33
2023-05-09T06:00:33.073Z,35.38
2023-05-09T06:03:06.101Z,35.47
2023-05-09T06:06:07.741Z,35.53
2023-05-09T06:08:36.267Z,35.65
2023-05-09T06:11:05.861Z,35.73
2023-05-09T06:13:35.902Z,36.17
2023-05-09T06:16:18.066Z,36.29
2023-05-09T06:18:49.681Z,36.59
2023-05-09T06:21:17.916Z,36.27
2023-05-09T06:26:17.523Z,36.10
2023-05-09T06:28:46.924Z,36.40
2023-05-09T06:31:15.047Z,36.40
2023-05-09T06:33:43.120Z,36.32
2023-05-09T06:36:11.900Z,35.98
2023-05-09T06:38:39.985Z,35.44
2023-05-09T06:41:08.103Z,35.57
2023-05-09T06:43:37.246Z,35.34
2023-05-09T06:46:06.799Z,35.52
2023-05-09T06:48:34.814Z,35.65
2023-05-09T06:51:03.064Z,34.91
2023-05-09T06:53:31.114Z,34.38
2023-05-09T06:55:59.397Z,34.18
2023-05-09T06:58:28.100Z,34.51
2023-05-09T07:00:56.172Z,34.44
2023-05-09T07:03:26.103Z,35.05
2023-05-09T07:05:56.768Z,35.72
2023-05-09T07:08:25.250Z,35.88
2023-05-09T07:10:53.299Z,35.33
2023-05-09T07:13:21.479Z,34.86
2023-05-09T07:15:49.682Z,35.42
2023-05-09T07:18:17.781Z,35.41
2023-05-09T07:20:47.118Z,34.96
2023-05-09T07:23:15.246Z,35.05
2023-05-09T07:25:43.922Z,35.13
2023-05-09T07:28:12.717Z,34.93
2023-05-09T07:30:41.226Z,34.44
2023-05-09T07:33:09.488Z,33.90
2023-05-09T07:35:37.536Z,33.56
2023-05-09T07:38:07.421Z,33.48
2023-05-09T07:40:36.518Z,32.61
2023-05-09T07:43:04.621Z,32.09
2023-05-09T07:45:32.703Z,32.44
2023-05-09T07:48:00.842Z,32.39
2023-05-09T07:50:29.068Z,32.55
2023-05-09T07:52:57.268Z,30.59
2023-05-09T07:55:26.777Z,31.06
2023-05-09T07:57:54.883Z,31.41
2023-05-09T08:00:24.299Z,31.70
2023-05-09T08:02:52.927Z,32.09
2023-05-09T08:05:21.235Z,31.10
2023-05-09T08:07:49.574Z,29.78
2023-05-09T08:10:17.642Z,29.70
2023-05-09T08:12:47.023Z,28.88
2023-05-09T08:15:15.376Z,28.20
2023-05-09T08:17:43.805Z,28.59
2023-05-09T08:20:13.389Z,27.79
2023-05-09T08:22:42.235Z,27.44
2023-05-09T08:25:10.665Z,27.68
2023-05-09T08:27:38.910Z,27.37
2023-05-09T08:30:09.647Z,27.43
2023-05-09T08:32:38.315Z,27.66
2023-05-09T08:35:08.855Z,27.50
2023-05-09T08:37:37.196Z,26.51
2023-05-09T08:40:07.595Z,25.89
2023-05-09T08:42:38.221Z,24.88
2023-05-09T08:45:11.135Z,24.24
2023-05-09T08:47:40.272Z,23.86
2023-05-09T08:50:09.657Z,23.48
2023-05-09T08:52:37.622Z,23.43
2023-05-09T08:55:06.587Z,23.24
2023-05-09T08:57:36.237Z,22.96
2023-05-09T09:00:06.645Z,22.72
2023-05-09T09:02:37.116Z,22.46
2023-05-09T09:07:39.397Z,21.86
2023-05-09T09:10:11.661Z,21.64
2023-05-09T09:12:41.030Z,21.45
2023-05-09T09:15:16.031Z,21.45
2023-05-09T09:17:49.604Z,21.43
2023-05-09T09:20:21.909Z,21.19
2023-05-09T09:22:52.401Z,20.92
2023-05-09T09:25:20.677Z,20.88
2023-05-09T09:27:48.784Z,20.59
2023-05-09T09:30:18.103Z,20.52
2023-05-09T09:32:48.643Z,20.48
2023-05-09T09:35:17.946Z,20.42
2023-05-09T09:37:46.150Z,20.20
2023-05-09T09:40:14.847Z,20.15
2023-05-09T09:42:43.843Z,20.18
2023-05-09T09:45:13.607Z,20.16
2023-05-09T09:47:43.816Z,20.01
2023-05-09T09:50:15.842Z,19.95
2023-05-09T09:52:45.713Z,19.91
2023-05-09T09:55:14.189Z,19.89
2023-05-09T09:57:45.607Z,19.87
2023-05-09T10:00:16.118Z,19.89
2023-05-09T10:02:52.428Z,19.77
2023-05-09T10:05:23.657Z,19.55
2023-05-09T10:07:55.572Z,19.50
2023-05-09T10:10:24.242Z,19.57
2023-05-09T10:12:53.236Z,19.50
2023-05-09T10:15:22.045Z,19.48
2023-05-09T10:17:55.008Z,19.44
2023-05-09T10:20:25.296Z,19.36
2023-05-09T10:22:57.058Z,19.19
2023-05-09T10:25:33.313Z,19.19
2023-05-09T10:28:02.674Z,19.21
2023-05-09T10:30:34.224Z,19.21
2023-05-09T10:33:05.092Z,19.14
2023-05-09T10:35:38.452Z,19.17
2023-05-09T10:38:08.168Z,19.11
2023-05-09T10:40:36.555Z,19.02
2023-05-09T10:43:05.328Z,18.88
2023-05-09T10:45:34.149Z,18.74
2023-05-09T10:48:04.093Z,18.73
2023-05-09T10:50:32.724Z,18.73
2023-05-09T10:53:11.573Z,18.77
2023-05-09T10:55:40.958Z,18.75
2023-05-09T10:58:21.040Z,18.78
2023-05-09T11:00:49.651Z,18.74
2023-05-09T11:03:19.422Z,18.54
2023-05-09T11:05:48.881Z,18.41
2023-05-09T11:08:23.088Z,18.35
2023-05-09T11:10:51.311Z,18.33
2023-05-09T11:13:20.813Z,18.26
2023-05-09T11:16:07.462Z,18.17
2023-05-09T11:18:35.647Z,18.10
2023-05-09T11:21:09.546Z,18.01
2023-05-09T11:23:39.425Z,17.88
2023-05-09T11:26:08.981Z,17.83
2023-05-09T11:28:39.625Z,17.81
2023-05-09T11:31:11.563Z,17.74
2023-05-09T11:33:41.068Z,17.73
2023-05-09T11:36:20.481Z,17.69
2023-05-09T11:38:50.036Z,17.59
2023-05-09T11:41:18.484Z,17.68
2023-05-09T11:43:46.648Z,17.71
2023-05-09T11:46:14.936Z,17.59
2023-05-09T11:48:43.041Z,17.49
2023-05-09T11:51:17.656Z,17.48
2023-05-09T11:53:47.215Z,17.50
2023-05-09T11:56:17.391Z,17.52
2023-05-09T11:58:46.809Z,17.56
2023-05-09T12:01:15.065Z,17.45
2023-05-09T12:03:45.142Z,17.37
2023-05-09T12:06:17.214Z,17.42
2023-05-09T12:08:46.813Z,17.49
2023-05-09T12:11:16.357Z,17.53
2023-05-09T12:13:48.598Z,17.60
2023-05-09T12:16:18.048Z,17.62
2023-05-09T12:18:47.995Z,17.55
2023-05-09T12:21:16.520Z,17.49
2023-05-09T12:23:44.658Z,17.27
2023-05-09T12:26:13.067Z,17.36
2023-05-09T12:28:44.605Z,17.49
2023-05-09T12:31:13.180Z,17.50
2023-05-09T12:33:41.961Z,17.61
2023-05-09T12:36:11.703Z,17.66
2023-05-09T12:38:40.137Z,17.63
2023-05-09T12:41:21.947Z,17.72
2023-05-09T12:43:59.645Z,17.76
2023-05-09T12:46:27.854Z,17.69
2023-05-09T12:48:56.458Z,17.59
2023-05-09T12:51:24.636Z,17.46
2023-05-09T12:53:52.727Z,17.48
2023-05-09T12:56:22.919Z,17.47
2023-05-09T12:58:52.217Z,17.50
2023-05-09T13:01:23.762Z,17.36
2023-05-09T13:04:02.627Z,17.38
2023-05-09T13:06:30.824Z,17.46
2023-05-09T13:09:01.410Z,17.51
2023-05-09T13:11:30.628Z,17.53
2023-05-09T13:13:59.385Z,17.54
2023-05-09T13:16:28.868Z,17.62
2023-05-09T13:18:56.918Z,17.61
2023-05-09T13:21:24.970Z,17.52
2023-05-09T13:23:53.068Z,17.55
2023-05-09T13:26:21.145Z,17.48
2023-05-09T13:28:49.417Z,17.47
2023-05-09T13:31:18.825Z,17.49
2023-05-09T13:33:49.992Z,17.38
2023-05-09T13:36:19.655Z,17.29
2023-05-09T13:38:47.785Z,17.37
2023-05-09T13:41:20.362Z,17.26
2023-05-09T13:43:48.812Z,17.25
2023-05-09T13:46:17.123Z,17.30
2023-05-09T13:48:45.683Z,17.17
2023-05-09T13:51:15.141Z,17.11
2023-05-09T13:53:43.121Z,17.08
2023-05-09T13:56:11.903Z,17.06
2023-05-09T13:58:39.913Z,17.04
2023-05-09T14:01:08.136Z,17.08
2023-05-09T14:03:36.323Z,17.07
2023-05-09T14:06:04.873Z,17.07
2023-05-09T14:08:34.667Z,17.05
2023-05-09T14:11:02.971Z,17.01
2023-05-09T14:13:32.026Z,17.02
2023-05-09T14:16:00.380Z,17.02
2023-05-09T14:18:28.610Z,17.05
2023-05-09T14:20:56.661Z,17.04
2023-05-09T14:23:25.430Z,17.07
2023-05-09T14:25:54.852Z,17.08
2023-05-09T14:28:23.160Z,16.96
2023-05-09T14:30:51.262Z,16.96
2023-05-09T14:33:19.357Z,16.97
2023-05-09T14:35:47.577Z,16.94
2023-05-09T14:38:15.569Z,16.92
2023-05-09T14:40:43.652Z,16.92
2023-05-09T14:43:13.299Z,16.88
2023-05-09T14:45:41.399Z,16.87
2023-05-09T14:48:09.377Z,16.89
2023-05-09T14:50:37.462Z,16.87
2023-05-09T14:53:05.644Z,16.82
2023-05-09T14:55:33.664Z,16.70
2023-05-09T14:58:02.654Z,16.66
2023-05-09T15:00:32.986Z,16.64
2023-05-09T15:03:01.147Z,16.59
2023-05-09T15:05:29.196Z,16.60
2023-05-09T15:07:57.270Z,16.57
2023-05-09T15:10:26.612Z,16.59
2023-05-09T15:12:55.223Z,16.47
2023-05-09T15:15:24.564Z,16.44
2023-05-09T15:17:55.275Z,16.42
2023-05-09T15:20:23.584Z,16.37
2023-05-09T15:22:52.250Z,16.36
2023-05-09T15:25:21.850Z,16.35
2023-05-09T15:27:50.486Z,16.36
2023-05-09T15:30:19.156Z,16.34
2023-05-09T15:32:47.379Z,16.39
2023-05-09T15:35:18.385Z,16.41
2023-05-09T15:37:46.669Z,16.32
2023-05-09T15:40:15.647Z,16.32
2023-05-09T15:42:43.828Z,16.30
2023-05-09T15:45:12.147Z,16.27
2023-05-09T15:47:40.240Z,16.24
2023-05-09T15:50:08.979Z,16.24
2023-05-09T15:52:38.447Z,16.23
2023-05-09T15:55:08.509Z,16.16
2023-05-09T15:57:36.647Z,16.10
2023-05-09T16:00:05.759Z,16.07
2023-05-09T16:02:41.185Z,16.02
2023-05-09T16:05:09.702Z,15.98
2023-05-09T16:07:39.134Z,15.89
2023-05-09T16:10:08.286Z,15.82
2023-05-09T16:12:36.307Z,15.74
2023-05-09T16:15:05.877Z,15.66
2023-05-09T16:17:34.224Z,15.58
2023-05-09T16:20:02.332Z,15.47
2023-05-09T16:22:31.458Z,15.47
2023-05-09T16:25:01.528Z,15.44
2023-05-09T16:27:29.653Z,15.37
2023-05-09T16:29:57.704Z,15.34
2023-05-09T16:32:25.892Z,15.32
2023-05-09T16:34:54.310Z,15.25
2023-05-09T16:37:23.504Z,15.23
2023-05-09T16:39:51.772Z,15.16
2023-05-09T16:42:21.570Z,15.08
2023-05-09T16:44:49.989Z,15.02
2023-05-09T16:47:18.135Z,14.91
2023-05-09T16:49:46.190Z,14.82
2023-05-09T16:52:14.238Z,14.74
2023-05-09T16:54:42.255Z,14.65
2023-05-09T16:57:10.323Z,14.58
2023-05-09T16:59:39.761Z,14.56
2023-05-09T17:02:07.971Z,14.51
2023-05-09T17:04:37.812Z,14.47
2023-05-09T17:07:06.178Z,14.43
2023-05-09T17:09:34.241Z,14.39
2023-05-09T17:12:02.406Z,14.35
2023-05-09T17:14:31.421Z,14.28
2023-05-09T17:17:00.772Z,14.24
2023-05-09T17:19:28.906Z,14.18
2023-05-09T17:21:58.975Z,14.13
2023-05-09T17:24:27.255Z,14.05
2023-05-09T17:26:56.582Z,13.99
2023-05-09T17:29:24.549Z,13.94
2023-05-09T17:31:52.493Z,13.88
2023-05-09T17:34:22.100Z,13.85
2023-05-09T17:36:50.239Z,13.82
2023-05-09T17:39:18.544Z,13.79
2023-05-09T17:41:47.240Z,13.75
2023-05-09T17:44:15.481Z,13.72
2023-05-09T17:46:44.081Z,13.67
2023-05-09T17:49:14.034Z,13.65
2023-05-09T17:51:43.892Z,13.63
2023-05-09T17:54:12.868Z,13.62
2023-05-09T17:56:40.885Z,13.60
2023-05-09T17:59:08.867Z,13.58
2023-05-09T18:01:36.997Z,13.56
2023-05-09T18:04:05.096Z,13.52
2023-05-09T18:06:33.202Z,13.49
2023-05-09T18:09:03.205Z,13.46
2023-05-09T18:11:31.368Z,13.41
2023-05-09T18:13:59.299Z,13.40
2023-05-09T18:16:27.394Z,13.35
2023-05-09T18:18:55.570Z,13.29
2023-05-09T18:21:23.555Z,13.25
2023-05-09T18:23:51.648Z,13.22
2023-05-09T18:26:21.931Z,13.19
2023-05-09T18:28:49.875Z,13.16
2023-05-09T18:31:18.069Z,13.14
2023-05-09T18:33:46.537Z,13.12
2023-05-09T18:36:15.365Z,13.10
2023-05-09T18:38:44.539Z,13.07
2023-05-09T18:41:13.720Z,13.03
2023-05-09T18:43:45.935Z,13.02
2023-05-09T18:46:17.310Z,12.99
2023-05-09T18:48:47.246Z,12.96
2023-05-09T18:51:15.192Z,12.93
2023-05-09T18:53:43.382Z,12.90
2023-05-09T18:56:11.491Z,12.87
2023-05-09T18:58:39.943Z,12.83
2023-05-09T19:01:11.750Z,12.81
2023-05-09T19:03:43.616Z,12.77
2023-05-09T19:06:13.658Z,12.74
2023-05-09T19:08:41.813Z,12.73
2023-05-09T19:11:11.603Z,12.72
2023-05-09T19:13:40.884Z,12.68
2023-05-09T19:16:10.408Z,12.68
2023-05-09T19:18:38.499Z,12.62
2023-05-09T19:21:06.679Z,12.60
2023-05-09T19:23:34.941Z,12.56
2023-05-09T19:26:03.518Z,12.51
2023-05-09T19:28:31.599Z,12.45
2023-05-09T19:30:59.642Z,12.37
2023-05-09T19:33:29.118Z,12.28
2023-05-09T19:35:57.227Z,12.16
2023-05-09T19:38:25.421Z,12.10
2023-05-09T19:40:53.771Z,12.04
2023-05-09T19:43:21.907Z,11.99
2023-05-09T19:45:50.208Z,11.92
2023-05-09T19:48:18.275Z,11.85
2023-05-09T19:50:47.691Z,11.82
2023-05-09T19:53:15.692Z,11.80
2023-05-09T19:55:46.791Z,11.74
2023-05-09T19:58:17.473Z,11.70
2023-05-09T20:00:46.010Z,11.67
2023-05-09T20:03:14.236Z,11.63
2023-05-09T20:05:42.309Z,11.54
2023-05-09T20:08:11.742Z,11.51
2023-05-09T20:10:40.491Z,11.48
2023-05-09T20:13:08.539Z,11.46
2023-05-09T20:15:36.692Z,11.44
2023-05-09T20:18:07.155Z,11.40
2023-05-09T20:20:35.372Z,11.38
2023-05-09T20:23:03.407Z,11.32
2023-05-09T20:25:32.741Z,11.29
2023-05-09T20:28:00.796Z,11.25
2023-05-09T20:30:28.818Z,11.22
2023-05-09T20:32:58.563Z,11.20
2023-05-09T20:35:26.696Z,11.20
2023-05-09T20:37:54.742Z,11.18
2023-05-09T20:40:23.488Z,11.13
2023-05-09T20:42:52.816Z,11.09
2023-05-09T20:45:21.195Z,11.03
2023-05-09T20:47:50.521Z,10.99
2023-05-09T20:50:18.790Z,10.93
2023-05-09T20:52:46.891Z,10.91
2023-05-09T20:55:14.968Z,10.88
2023-05-09T20:57:42.974Z,10.87
2023-05-09T21:00:13.592Z,10.86
2023-05-09T21:11:46.528Z,10.67
2023-05-09T21:14:14.612Z,10.61
2023-05-09T21:16:45.181Z,10.55
2023-05-09T21:19:13.420Z,10.53
2023-05-09T21:21:41.498Z,10.53
2023-05-09T21:24:09.930Z,10.51
2023-05-09T21:26:37.918Z,10.49
2023-05-09T21:29:06.603Z,10.48
2023-05-09T21:31:34.856Z,10.46
2023-05-09T21:34:09.737Z,10.46
2023-05-09T21:36:38.493Z,10.43
2023-05-09T21:39:09.642Z,10.41
2023-05-09T21:41:38.745Z,10.39
2023-05-09T21:44:07.383Z,10.37
2023-05-09T21:46:36.180Z,10.35
2023-05-09T21:49:05.761Z,10.32
2023-05-09T21:51:34.100Z,10.29
2023-05-09T21:54:02.257Z,10.28
2023-05-09T21:56:30.645Z,10.25
2023-05-09T21:58:58.823Z,10.24
2023-05-09T22:01:26.756Z,10.24
2023-05-09T22:03:54.983Z,10.24
2023-05-09T22:06:24.441Z,10.23
2023-05-09T22:08:52.577Z,10.21
2023-05-09T22:11:20.638Z,10.20
2023-05-09T22:13:48.664Z,10.20
2023-05-09T22:16:17.596Z,10.19
2023-05-09T22:18:45.853Z,10.20
2023-05-09T22:21:13.873Z,10.19
2023-05-09T22:23:43.293Z,10.18
2023-05-09T22:26:11.294Z,10.18
2023-05-09T22:28:39.510Z,10.17
2023-05-09T22:31:08.511Z,10.17
2023-05-09T22:33:36.622Z,10.16
2023-05-09T22:36:05.793Z,10.12
2023-05-09T22:38:33.932Z,10.10
2023-05-09T22:41:03.359Z,10.06
2023-05-09T22:43:38.641Z,10.04
2023-05-09T22:46:08.066Z,9.99
2023-05-09T22:48:36.321Z,9.97
2023-05-09T22:51:04.649Z,9.93
2023-05-09T22:53:33.776Z,9.89
2023-05-09T22:56:03.338Z,9.86
2023-05-09T22:58:31.427Z,9.82
2023-05-09T23:00:59.465Z,9.79
2023-05-09T23:03:27.698Z,9.77
2023-05-09T23:05:55.784Z,9.75
2023-05-09T23:08:24.433Z,9.73
2023-05-09T23:10:53.008Z,9.70
2023-05-09T23:13:22.410Z,9.68
2023-05-09T23:15:50.464Z,9.66
2023-05-09T23:18:18.649Z,9.62
2023-05-09T23:20:46.603Z,9.60
2023-05-09T23:23:14.650Z,9.57
2023-05-09T23:25:42.863Z,9.53
2023-05-09T23:28:11.052Z,9.47
2023-05-09T23:30:40.472Z,9.43
2023-05-09T23:33:08.578Z,9.36
2023-05-09T23:35:36.767Z,9.31
2023-05-09T23:38:05.046Z,9.28
2023-05-09T23:40:33.157Z,9.30
2023-05-09T23:43:01.281Z,9.29
2023-05-09T23:45:29.520Z,9.30
2023-05-09T23:47:59.157Z,9.30
2023-05-09T23:50:27.245Z,9.30
2023-05-09T23:52:55.324Z,9.31
2023-05-09T23:55:23.308Z,9.31
2023-05-09T23:57:51.301Z,9.32
